createdAt,value
2018-12-16T05:02:13.411Z,18.63
2018-12-16T05:04:41.536Z,18.53
2018-12-16T05:07:09.743Z,18.73
2018-12-16T05:09:38.128Z,19.53
2018-12-16T05:12:06.468Z,19.27
2018-12-16T05:14:34.651Z,19.93
2018-12-16T05:17:02.747Z,19.27
2018-12-16T05:19:30.844Z,19.63
2018-12-16T05:21:58.982Z,18.80
2018-12-16T05:24:27.380Z,18.20
2018-12-16T05:26:56.136Z,19.23
2018-12-16T05:29:24.204Z,19.07
2018-12-16T05:31:52.298Z,20.60
2018-12-16T05:34:20.395Z,18.44
2018-12-16T05:36:49.299Z,20.00
2018-12-16T05:39:17.989Z,19.55
2018-12-16T05:41:46.424Z,21.33
2018-12-16T05:44:15.437Z,20.70
2018-12-16T05:46:43.593Z,19.47
2018-12-16T05:49:11.674Z,17.70
2018-12-16T05:51:39.753Z,19.23
2018-12-16T05:54:08.624Z,19.67
2018-12-16T05:56:37.455Z,18.77
2018-12-16T05:59:05.572Z,21.73
2018-12-16T06:01:33.659Z,20.37
2018-12-16T06:04:01.748Z,20.33
2018-12-16T06:06:31.438Z,19.17
2018-12-16T06:08:59.626Z,20.73
2018-12-16T06:11:27.806Z,20.70
2018-12-16T06:13:55.944Z,18.60
2018-12-16T06:16:24.067Z,19.00
2018-12-16T06:18:52.155Z,20.32
2018-12-16T06:21:20.246Z,21.73
2018-12-16T06:23:55.363Z,20.52
2018-12-16T06:26:19.089Z,19.63
2018-12-16T06:28:47.425Z,21.20
2018-12-16T06:31:15.520Z,20.23
2018-12-16T06:33:43.646Z,20.17
2018-12-16T06:36:11.818Z,20.57
2018-12-16T06:38:39.930Z,21.70
2018-12-16T06:41:09.272Z,19.92
2018-12-16T06:43:37.481Z,19.90
2018-12-16T06:46:05.561Z,20.17
2018-12-16T06:48:33.669Z,19.80
2018-12-16T06:51:03.490Z,19.87
2018-12-16T06:53:31.576Z,23.00
2018-12-16T06:56:06.507Z,22.10
2018-12-16T06:58:29.879Z,22.37
2018-12-16T07:00:58.084Z,24.10
2018-12-16T07:03:26.285Z,22.77
2018-12-16T07:05:54.380Z,25.15
2018-12-16T07:08:22.559Z,24.43
2018-12-16T07:10:50.648Z,24.07
2018-12-16T07:13:20.438Z,24.23
2018-12-16T07:15:49.167Z,23.83
2018-12-16T07:18:17.351Z,23.03
2018-12-16T07:20:45.452Z,22.10
2018-12-16T07:23:13.586Z,21.00
2018-12-16T07:25:41.681Z,22.17
2018-12-16T07:28:09.873Z,23.17
2018-12-16T07:30:38.390Z,27.82
2018-12-16T07:33:07.252Z,24.50
2018-12-16T07:35:36.565Z,22.90
2018-12-16T07:38:04.684Z,22.93
2018-12-16T07:40:32.903Z,21.93
2018-12-16T07:43:00.999Z,23.87
2018-12-16T07:45:29.115Z,23.40
2018-12-16T07:47:57.832Z,22.62
2018-12-16T07:50:26.068Z,22.00
2018-12-16T07:52:54.225Z,22.20
2018-12-16T07:55:22.404Z,22.17
2018-12-16T07:57:52.401Z,24.63
2018-12-16T08:00:20.605Z,22.87
2018-12-16T08:02:48.832Z,21.83
2018-12-16T08:05:17.595Z,22.87
2018-12-16T08:07:45.750Z,23.37
2018-12-16T08:10:13.815Z,23.53
2018-12-16T08:12:41.930Z,23.83
2018-12-16T08:15:10.102Z,23.43
2018-12-16T08:17:38.334Z,23.13
2018-12-16T08:20:07.865Z,24.65
2018-12-16T08:22:36.026Z,23.50
2018-12-16T08:25:06.155Z,24.27
2018-12-16T08:27:34.347Z,23.80
2018-12-16T08:30:02.597Z,24.50
2018-12-16T08:32:30.808Z,24.20
2018-12-16T08:35:04.788Z,24.63
2018-12-16T08:37:33.022Z,25.13
2018-12-16T08:40:01.607Z,23.23
2018-12-16T08:42:31.204Z,24.03
2018-12-16T08:45:05.492Z,24.60
2018-12-16T08:47:33.928Z,23.73
2018-12-16T08:50:02.164Z,23.57
2018-12-16T08:52:30.320Z,24.30
2018-12-16T08:54:58.476Z,24.43
2018-12-16T08:57:26.725Z,23.73
2018-12-16T08:59:54.825Z,24.12
2018-12-16T09:02:22.959Z,24.27
2018-12-16T09:04:51.051Z,24.57
2018-12-16T09:07:19.147Z,24.00
2018-12-16T09:09:47.397Z,23.27
2018-12-16T09:12:15.499Z,22.83
2018-12-16T09:14:43.677Z,26.10
2018-12-16T09:17:11.763Z,26.77
2018-12-16T09:19:41.858Z,31.43
2018-12-16T09:22:09.963Z,31.30
2018-12-16T09:24:38.192Z,25.03
2018-12-16T09:27:06.308Z,28.42
2018-12-16T09:29:34.420Z,23.40
2018-12-16T09:32:04.336Z,23.73
2018-12-16T09:34:32.978Z,26.77
2018-12-16T09:37:01.277Z,28.90
2018-12-16T09:39:29.397Z,29.43
2018-12-16T09:41:57.487Z,22.60
2018-12-16T09:44:25.590Z,23.67
2018-12-16T09:46:53.697Z,22.27
2018-12-16T09:49:21.796Z,23.57
2018-12-16T09:51:49.967Z,23.60
2018-12-16T09:54:18.115Z,21.90
2018-12-16T09:56:46.240Z,25.30
2018-12-16T09:59:14.339Z,23.77
2018-12-16T10:01:42.451Z,23.83
2018-12-16T10:04:10.563Z,23.30
2018-12-16T10:06:38.758Z,23.40
2018-12-16T10:09:08.697Z,25.60
2018-12-16T10:11:36.818Z,25.87
2018-12-16T10:14:04.925Z,24.57
2018-12-16T10:16:33.020Z,23.93
2018-12-16T10:19:01.103Z,24.70
2018-12-16T10:21:29.528Z,22.30
2018-12-16T10:23:59.337Z,22.17
2018-12-16T10:26:27.800Z,23.97
2018-12-16T10:28:56.111Z,23.92
2018-12-16T10:31:27.904Z,21.73
2018-12-16T10:33:57.076Z,22.57
2018-12-16T10:36:27.236Z,22.73
2018-12-16T10:38:55.813Z,23.97
2018-12-16T10:41:24.393Z,21.83
2018-12-16T10:43:52.476Z,23.07
2018-12-16T10:46:20.571Z,23.17
2018-12-16T10:48:48.694Z,22.00
2018-12-16T10:51:16.784Z,22.67
2018-12-16T10:53:46.011Z,22.70
2018-12-16T10:56:15.935Z,24.23
2018-12-16T10:58:44.034Z,21.90
2018-12-16T11:01:17.503Z,21.43
2018-12-16T11:03:45.664Z,21.93
2018-12-16T11:06:13.780Z,22.23
2018-12-16T11:08:42.335Z,22.48
2018-12-16T11:11:10.431Z,22.60
2018-12-16T11:13:38.572Z,23.12
2018-12-16T11:16:06.739Z,27.60
2018-12-16T11:18:34.982Z,23.87
2018-12-16T11:21:03.158Z,24.30
2018-12-16T11:23:31.265Z,21.43
2018-12-16T11:25:59.388Z,21.30
2018-12-16T11:28:27.526Z,29.03
2018-12-16T11:30:55.631Z,24.50
2018-12-16T11:33:23.728Z,22.57
2018-12-16T11:35:51.879Z,22.87
2018-12-16T11:38:20.195Z,22.90
2018-12-16T11:40:49.398Z,22.60
2018-12-16T11:43:17.815Z,21.77
2018-12-16T11:45:47.083Z,22.40
2018-12-16T11:48:17.044Z,21.50
2018-12-16T11:50:45.860Z,21.47
2018-12-16T11:53:15.157Z,21.45
2018-12-16T11:55:43.584Z,21.67
2018-12-16T11:58:12.923Z,24.27
2018-12-16T12:00:46.050Z,25.37
2018-12-16T12:03:14.727Z,26.00
2018-12-16T12:05:43.106Z,22.63
2018-12-16T12:08:17.056Z,22.60
2018-12-16T12:10:45.921Z,22.33
2018-12-16T12:13:16.982Z,22.30
2018-12-16T12:15:46.596Z,22.20
2018-12-16T12:18:15.743Z,22.43
2018-12-16T12:20:45.332Z,22.20
2018-12-16T12:23:13.953Z,24.80
2018-12-16T12:25:43.522Z,23.37
2018-12-16T12:28:13.673Z,22.83
2018-12-16T12:30:43.393Z,23.65
2018-12-16T12:33:13.058Z,23.10
2018-12-16T12:35:42.274Z,21.90
2018-12-16T12:38:11.402Z,24.35
2018-12-16T12:40:42.350Z,24.53
2018-12-16T12:43:11.558Z,25.23
2018-12-16T12:45:40.576Z,24.57
2018-12-16T12:48:09.705Z,24.67
2018-12-16T12:50:38.940Z,25.03
2018-12-16T12:53:07.423Z,23.15
2018-12-16T12:55:35.602Z,24.30
2018-12-16T12:58:03.849Z,24.20
2018-12-16T13:00:31.975Z,24.20
2018-12-16T13:03:01.679Z,24.23
2018-12-16T13:05:36.867Z,23.37
2018-12-16T13:08:00.157Z,24.83
2018-12-16T13:10:29.088Z,24.67
2018-12-16T13:12:57.744Z,24.83
2018-12-16T13:15:27.014Z,25.65
2018-12-16T13:17:56.325Z,25.33
2018-12-16T13:20:25.808Z,25.53
2018-12-16T13:22:54.471Z,23.43
2018-12-16T13:25:35.714Z,23.67
2018-12-16T13:28:05.010Z,23.40
2018-12-16T13:30:34.021Z,23.27
2018-12-16T13:33:03.182Z,24.43
2018-12-16T13:35:32.221Z,22.52
2018-12-16T13:38:00.319Z,22.60
2018-12-16T13:40:30.216Z,23.73
2018-12-16T13:42:59.052Z,23.60
2018-12-16T13:45:28.278Z,24.57
2018-12-16T13:47:57.466Z,24.63
2018-12-16T13:50:26.998Z,25.43
2018-12-16T13:52:55.928Z,24.52
2018-12-16T13:55:24.889Z,28.50
2018-12-16T13:57:54.563Z,26.52
2018-12-16T14:00:23.569Z,25.10
2018-12-16T14:02:52.931Z,24.47
2018-12-16T14:05:21.059Z,24.83
2018-12-16T14:07:49.247Z,30.20
2018-12-16T14:10:17.379Z,37.40
2018-12-16T14:12:45.488Z,31.77
2018-12-16T14:15:13.654Z,34.60
2018-12-16T14:17:41.815Z,33.13
2018-12-16T14:20:10.486Z,39.50
2018-12-16T14:22:39.107Z,37.37
2018-12-16T14:25:08.458Z,28.90
2018-12-16T14:27:36.601Z,31.17
2018-12-16T14:30:06.743Z,32.10
2018-12-16T14:32:34.796Z,29.20
2018-12-16T14:35:03.554Z,28.23
2018-12-16T14:37:31.959Z,26.53
2018-12-16T14:40:00.603Z,27.40
2018-12-16T14:45:10.411Z,33.47
2018-12-16T14:47:38.762Z,31.12
2018-12-16T14:50:09.534Z,30.03
2018-12-16T14:52:38.424Z,30.30
2018-12-16T14:55:07.540Z,30.37
2018-12-16T14:57:37.399Z,32.78
2018-12-16T15:00:08.200Z,29.00
2018-12-16T15:02:36.431Z,31.10
2018-12-16T15:05:04.779Z,30.60
2018-12-16T15:07:33.016Z,29.50
2018-12-16T15:10:01.190Z,28.92
2018-12-16T15:12:29.401Z,29.10
2018-12-16T15:15:00.130Z,29.40
2018-12-16T15:17:31.661Z,29.20
2018-12-16T15:20:02.488Z,31.07
2018-12-16T15:22:31.790Z,33.20
2018-12-16T15:28:01.362Z,34.20
2018-12-16T19:56:17.360Z,30.43
2018-12-16T19:58:46.938Z,32.37
2018-12-16T20:01:16.369Z,33.93
2018-12-16T20:03:50.035Z,34.40
2018-12-16T20:06:23.705Z,42.73
2018-12-16T20:08:51.866Z,36.60
2018-12-16T20:11:23.804Z,38.38
2018-12-16T20:13:51.911Z,30.57
2018-12-16T20:16:21.258Z,30.27
2018-12-16T20:18:49.400Z,34.17
2018-12-16T20:21:19.334Z,41.07
2018-12-16T20:23:47.524Z,35.17
2018-12-16T20:26:16.582Z,35.57
2018-12-16T20:28:49.047Z,33.30
2018-12-16T20:31:18.341Z,33.07
2018-12-16T20:33:46.574Z,31.80
2018-12-16T20:36:14.764Z,36.43
2018-12-16T20:38:42.884Z,32.70
2018-12-16T20:41:11.098Z,35.00
2018-12-16T20:43:39.207Z,35.53
2018-12-16T20:46:07.843Z,34.40
2018-12-16T20:48:35.972Z,34.83
2018-12-16T20:51:04.129Z,32.60
2018-12-16T20:53:32.228Z,36.63
2018-12-16T20:56:00.455Z,36.42
2018-12-16T20:58:28.723Z,37.47
2018-12-16T21:00:56.984Z,38.78
2018-12-16T21:03:25.189Z,35.83
2018-12-16T21:05:55.496Z,36.95
2018-12-16T21:08:23.623Z,37.50
2018-12-16T21:10:51.742Z,39.07
2018-12-16T21:13:25.385Z,37.57
2018-12-16T21:15:58.939Z,37.58
2018-12-16T21:18:29.255Z,35.97
2018-12-16T21:20:57.348Z,36.47
2018-12-16T21:23:25.635Z,35.35
2018-12-16T21:25:53.756Z,36.23
2018-12-16T21:28:21.952Z,35.05
2018-12-16T21:30:50.127Z,34.50
2018-12-16T21:33:18.370Z,34.23
2018-12-16T21:35:47.342Z,34.03
2018-12-16T21:38:15.438Z,33.10
2018-12-16T21:40:43.641Z,32.03
2018-12-16T21:43:11.738Z,31.77
2018-12-16T21:45:40.068Z,29.83
2018-12-16T21:48:08.183Z,31.67
2018-12-16T21:50:36.319Z,31.48
2018-12-16T21:53:04.495Z,31.27
2018-12-16T21:55:32.659Z,32.20
2018-12-16T21:58:00.752Z,32.33
2018-12-16T22:00:30.520Z,35.10
2018-12-16T22:02:58.842Z,37.23
2018-12-16T22:05:31.699Z,37.27
2018-12-16T22:07:59.996Z,34.27
2018-12-16T22:10:28.084Z,37.27
2018-12-16T22:12:56.192Z,34.97
2018-12-16T22:15:24.363Z,35.67
2018-12-16T22:17:52.517Z,38.10
2018-12-16T22:20:20.619Z,37.20
2018-12-16T22:22:50.470Z,37.20
2018-12-16T22:25:18.585Z,36.30
2018-12-16T22:27:46.752Z,36.70
2018-12-16T22:30:15.367Z,36.40
2018-12-16T22:32:43.484Z,36.60
2018-12-16T22:35:12.103Z,36.35
2018-12-16T22:37:46.300Z,36.10
2018-12-16T22:40:15.663Z,36.63
2018-12-16T22:42:43.798Z,34.23
2018-12-16T22:45:11.907Z,33.45
2018-12-16T22:47:40.409Z,36.00
2018-12-16T22:50:09.759Z,37.40
2018-12-16T22:52:37.855Z,35.73
2018-12-16T22:55:07.792Z,35.03
2018-12-16T22:57:35.871Z,35.63
2018-12-16T23:00:04.999Z,32.87
2018-12-16T23:02:33.140Z,33.10
2018-12-16T23:05:03.355Z,35.20
2018-12-16T23:07:31.494Z,34.83
2018-12-16T23:09:59.615Z,33.50
2018-12-16T23:12:30.566Z,34.13
2018-12-16T23:14:59.704Z,34.77
2018-12-16T23:17:27.803Z,34.47
2018-12-16T23:20:01.808Z,33.83
2018-12-16T23:22:30.018Z,35.97
2018-12-16T23:24:59.868Z,33.57
2018-12-16T23:27:28.187Z,32.57
2018-12-16T23:29:57.339Z,33.65
2018-12-16T23:32:25.503Z,33.13
2018-12-16T23:34:53.591Z,30.97
2018-12-16T23:37:21.702Z,34.40
2018-12-16T23:39:50.458Z,30.30
2018-12-16T23:42:18.582Z,31.87
2018-12-16T23:44:46.667Z,30.50
2018-12-16T23:47:14.999Z,31.60
2018-12-16T23:49:43.303Z,32.97
2018-12-16T23:52:11.390Z,29.90
2018-12-16T23:54:39.522Z,31.02
2018-12-16T23:57:07.623Z,29.53
2018-12-16T23:59:35.710Z,29.27
